Time;durP1;ratioP1;P1;durP2;ratioP2;P2;SDS_P1;SDS_P2;PMS_P1;PMS_P2;Temp;Humidity;BMP_temperature;BMP_pressure;BME280_temperature;BME280_humidity;BME280_pressure;Samples;Min_cycle;Max_cycle;Signal;HPM_P1;HPM_P2
2023/03/28 00:02:11;;;;;;;4.57;1.90;;;3.30;99.90;;;;;;5092345;28;20220;-57
2023/03/28 00:04:40;;;;;;;3.23;1.83;;;3.20;99.90;;;;;;5091922;28;20204;-57
2023/03/28 00:07:07;;;;;;;3.13;1.67;;;3.20;99.90;;;;;;5091835;28;20228;-57
2023/03/28 00:09:34;;;;;;;3.87;2.10;;;3.20;99.90;;;;;;5092050;28;20682;-57
2023/03/28 00:12:00;;;;;;;3.17;2.03;;;3.20;99.90;;;;;;5091973;28;20218;-57
2023/03/28 00:14:27;;;;;;;4.00;1.93;;;3.20;99.90;;;;;;5092070;28;20551;-57
2023/03/28 00:16:54;;;;;;;2.53;1.70;;;3.20;99.90;;;;;;5091553;28;20221;-57
2023/03/28 00:19:20;;;;;;;2.70;1.60;;;3.20;99.90;;;;;;5092027;28;20223;-57
2023/03/28 00:21:50;;;;;;;3.53;2.00;;;3.20;99.90;;;;;;5091835;28;20208;-57
2023/03/28 00:24:20;;;;;;;2.60;1.70;;;3.10;99.90;;;;;;5091954;28;20235;-58
2023/03/28 00:26:53;;;;;;;5.10;2.10;;;3.10;99.90;;;;;;5091367;28;20209;-57
2023/03/28 00:29:21;;;;;;;3.83;2.03;;;3.10;99.90;;;;;;5091792;28;20216;-57
2023/03/28 00:31:49;;;;;;;4.10;2.10;;;3.10;99.90;;;;;;5092017;28;20269;-57
2023/03/28 00:34:16;;;;;;;3.77;1.60;;;3.10;99.90;;;;;;5091930;28;20212;-57
2023/03/28 00:36:43;;;;;;;3.13;1.70;;;3.10;99.90;;;;;;5091570;28;20200;-57
2023/03/28 00:39:12;;;;;;;4.33;1.93;;;3.00;99.90;;;;;;5091973;28;20201;-57
2023/03/28 00:41:41;;;;;;;3.43;1.87;;;3.00;99.90;;;;;;5091809;28;20212;-57
2023/03/28 00:44:44;;;;;;;3.17;1.70;;;3.00;99.90;;;;;;5091636;28;20626;-57
2023/03/28 00:47:27;;;;;;;3.77;1.87;;;3.00;99.90;;;;;;5091342;28;20725;-57
2023/03/28 00:49:57;;;;;;;4.23;1.67;;;2.90;99.90;;;;;;5092026;28;20200;-57
2023/03/28 00:52:29;;;;;;;2.97;1.63;;;2.90;99.90;;;;;;5091773;28;20208;-57
2023/03/28 00:54:58;;;;;;;2.93;1.83;;;2.90;99.90;;;;;;5093538;28;20245;-57
2023/03/28 00:57:27;;;;;;;2.50;1.67;;;2.90;99.90;;;;;;5095184;28;20228;-57
2023/03/28 00:59:54;;;;;;;5.37;2.10;;;2.90;99.90;;;;;;5095049;28;20220;-57
2023/03/28 01:02:21;;;;;;;2.67;1.53;;;2.90;99.90;;;;;;5095110;28;20579;-57
2023/03/28 01:04:54;;;;;;;4.47;1.90;;;2.90;99.90;;;;;;5094951;28;20723;-57
2023/03/28 01:07:21;;;;;;;2.47;1.80;;;2.90;99.90;;;;;;5095190;28;20236;-57
2023/03/28 01:09:49;;;;;;;2.53;1.70;;;2.90;99.90;;;;;;5095266;28;20197;-57
2023/03/28 01:12:19;;;;;;;5.30;1.93;;;2.90;99.90;;;;;;5095090;28;20555;-57
2023/03/28 01:14:47;;;;;;;4.70;1.90;;;3.00;99.90;;;;;;5095094;28;20204;-57
2023/03/28 01:17:14;;;;;;;3.67;1.60;;;3.10;99.90;;;;;;5094785;28;20235;-57
2023/03/28 01:19:57;;;;;;;3.37;1.80;;;3.10;99.90;;;;;;5094900;28;20719;-57
2023/03/28 01:23:02;;;;;;;6.23;1.83;;;3.20;99.90;;;;;;5095313;28;20200;-57
2023/03/28 01:26:05;;;;;;;3.67;1.60;;;3.30;99.90;;;;;;5094757;28;20215;-57
2023/03/28 01:29:09;;;;;;;2.47;1.30;;;3.30;99.90;;;;;;5059334;28;20227;-59
2023/03/28 01:32:11;;;;;;;4.73;1.77;;;3.30;99.90;;;;;;5094792;28;20200;-56
2023/03/28 01:34:54;;;;;;;1.97;1.33;;;3.40;99.90;;;;;;5095034;28;20211;-57
2023/03/28 01:37:30;;;;;;;3.23;1.93;;;3.60;99.90;;;;;;5094592;28;20302;-56
2023/03/28 01:40:11;;;;;;;2.13;1.53;;;3.60;99.90;;;;;;5094740;28;20231;-56
2023/03/28 01:42:48;;;;;;;3.20;1.70;;;3.70;99.90;;;;;;5094811;28;20660;-57
2023/03/28 01:45:22;;;;;;;3.50;1.53;;;3.70;99.90;;;;;;5094373;28;20583;-56
2023/03/28 01:47:53;;;;;;;2.60;1.50;;;3.80;99.90;;;;;;5094453;28;20224;-57
2023/03/28 01:50:28;;;;;;;3.90;1.67;;;3.80;99.90;;;;;;5094496;28;20204;-58
2023/03/28 01:53:06;;;;;;;3.57;1.40;;;3.70;99.90;;;;;;5094169;28;20214;-57
2023/03/28 01:55:37;;;;;;;3.13;1.70;;;3.60;99.90;;;;;;5094237;28;20206;-59
2023/03/28 01:58:12;;;;;;;2.40;1.20;;;3.50;99.90;;;;;;5094038;28;20224;-57
2023/03/28 02:00:42;;;;;;;4.63;1.87;;;3.50;99.90;;;;;;5093789;28;20220;-58
2023/03/28 02:03:12;;;;;;;2.37;1.70;;;3.40;99.90;;;;;;5094092;28;20200;-57
2023/03/28 02:05:40;;;;;;;4.90;1.50;;;3.40;99.90;;;;;;5093862;28;20208;-57
2023/03/28 02:08:10;;;;;;;4.47;1.70;;;3.40;99.90;;;;;;5093752;28;20270;-58
2023/03/28 02:10:40;;;;;;;4.47;1.63;;;3.50;99.90;;;;;;5093576;28;20672;-57
2023/03/28 02:13:14;;;;;;;4.13;1.80;;;3.60;99.90;;;;;;5093744;28;20204;-57
2023/03/28 02:15:42;;;;;;;3.83;1.83;;;3.60;99.90;;;;;;5093350;28;20220;-57
2023/03/28 02:18:15;;;;;;;3.23;1.50;;;3.50;99.90;;;;;;5093409;28;20224;-57
2023/03/28 02:20:44;;;;;;;2.10;1.37;;;3.50;99.90;;;;;;5093632;28;20230;-58
2023/03/28 02:23:17;;;;;;;3.70;1.60;;;3.40;99.90;;;;;;5093711;28;20215;-57
2023/03/28 02:25:44;;;;;;;5.57;1.50;;;3.30;99.90;;;;;;5093717;28;20295;-57
2023/03/28 02:28:13;;;;;;;3.13;1.43;;;3.30;99.90;;;;;;5093375;28;20232;-57
2023/03/28 02:30:40;;;;;;;5.13;1.50;;;3.20;99.90;;;;;;5093767;28;20203;-57
2023/03/28 02:33:29;;;;;;;6.67;1.73;;;3.10;99.90;;;;;;5093617;28;20211;-58
2023/03/28 02:36:03;;;;;;;3.93;1.90;;;3.10;99.90;;;;;;5093190;28;20219;-58
2023/03/28 02:38:43;;;;;;;7.00;2.20;;;3.00;99.90;;;;;;5093321;28;20230;-57
2023/03/28 02:41:22;;;;;;;5.00;1.60;;;2.90;99.90;;;;;;5093626;28;20683;-58
2023/03/28 02:44:05;;;;;;;3.90;1.57;;;2.90;99.90;;;;;;5093395;28;20215;-58
2023/03/28 02:46:40;;;;;;;2.50;1.40;;;2.80;99.90;;;;;;5093074;28;20208;-58
2023/03/28 02:49:34;;;;;;;3.80;1.83;;;2.80;99.90;;;;;;5093320;28;20695;-57
2023/03/28 02:52:13;;;;;;;3.83;1.70;;;2.70;99.90;;;;;;5093212;28;20204;-57
2023/03/28 02:54:50;;;;;;;3.10;2.10;;;2.60;99.90;;;;;;5093414;28;20686;-58
2023/03/28 02:57:26;;;;;;;5.17;1.97;;;2.50;99.90;;;;;;5092779;28;20219;-58
2023/03/28 02:59:56;;;;;;;3.63;1.80;;;2.50;99.90;;;;;;5093207;28;20207;-57
2023/03/28 03:02:23;;;;;;;4.43;1.60;;;2.50;99.90;;;;;;5093138;28;20212;-57
2023/03/28 03:04:50;;;;;;;3.07;2.10;;;2.50;99.90;;;;;;5092919;28;20201;-57
2023/03/28 03:07:17;;;;;;;4.37;2.23;;;2.40;99.90;;;;;;5093234;28;20234;-58
2023/03/28 03:09:46;;;;;;;3.87;2.30;;;2.40;99.90;;;;;;5093006;28;20208;-57
2023/03/28 03:12:13;;;;;;;5.33;2.40;;;2.50;99.90;;;;;;5092768;28;20205;-57
2023/03/28 03:14:40;;;;;;;4.13;2.20;;;2.40;99.90;;;;;;5092954;28;20204;-57
2023/03/28 03:17:07;;;;;;;4.53;2.10;;;2.40;99.90;;;;;;5092144;28;20301;-57
2023/03/28 03:19:35;;;;;;;4.27;1.97;;;2.30;99.90;;;;;;5092737;28;20534;-57
2023/03/28 03:22:02;;;;;;;6.10;2.20;;;2.30;99.90;;;;;;5092713;28;20220;-57
2023/03/28 03:24:29;;;;;;;6.10;2.30;;;2.30;99.90;;;;;;5092704;28;20207;-58
2023/03/28 03:26:57;;;;;;;3.70;2.17;;;2.30;99.90;;;;;;5092426;28;20231;-57
2023/03/28 03:29:24;;;;;;;4.07;1.83;;;2.30;99.90;;;;;;5092901;28;20212;-59
2023/03/28 03:31:50;;;;;;;4.80;2.03;;;2.30;99.90;;;;;;5093090;28;20548;-58
2023/03/28 03:34:17;;;;;;;9.80;4.93;;;2.30;99.90;;;;;;5092804;28;20212;-57
2023/03/28 03:36:44;;;;;;;7.40;2.47;;;2.20;99.90;;;;;;5092568;28;20212;-57
2023/03/28 03:39:11;;;;;;;7.30;3.10;;;2.30;99.90;;;;;;5093510;28;20204;-57
2023/03/28 03:41:38;;;;;;;5.83;3.07;;;2.20;99.90;;;;;;5092792;28;20228;-58
2023/03/28 03:44:06;;;;;;;6.47;2.80;;;2.20;99.90;;;;;;5092701;28;20215;-57
2023/03/28 03:46:33;;;;;;;9.77;5.60;;;2.30;99.90;;;;;;5092587;28;20204;-57
2023/03/28 03:49:00;;;;;;;7.90;3.87;;;2.40;99.90;;;;;;5092466;28;20231;-57
2023/03/28 03:51:26;;;;;;;8.43;4.03;;;2.60;99.90;;;;;;5092355;28;20664;-56
2023/03/28 03:53:53;;;;;;;4.53;2.30;;;2.70;99.90;;;;;;5092320;28;20208;-56
2023/03/28 03:56:21;;;;;;;11.33;4.93;;;2.80;99.90;;;;;;5092335;28;20204;-58
2023/03/28 03:58:48;;;;;;;4.90;3.20;;;2.80;99.90;;;;;;5092528;28;20301;-58
2023/03/28 04:01:16;;;;;;;28.23;13.73;;;2.90;99.90;;;;;;5092685;28;20220;-58
2023/03/28 04:03:43;;;;;;;5.27;2.60;;;2.90;99.90;;;;;;5092659;28;20231;-58
2023/03/28 04:06:10;;;;;;;11.77;5.57;;;2.90;99.90;;;;;;5092420;28;20209;-58
2023/03/28 04:08:37;;;;;;;7.07;4.17;;;2.90;99.90;;;;;;5092802;28;20270;-58
2023/03/28 04:11:04;;;;;;;9.73;3.40;;;2.90;99.90;;;;;;5093008;28;20208;-59
2023/03/28 04:13:31;;;;;;;5.43;3.10;;;2.90;99.90;;;;;;5092202;28;20208;-56
2023/03/28 04:15:57;;;;;;;4.67;2.60;;;2.90;99.90;;;;;;5092078;28;20200;-58
2023/03/28 04:18:28;;;;;;;5.03;2.73;;;2.80;99.90;;;;;;5092351;28;20234;-58
2023/03/28 04:20:58;;;;;;;5.53;2.87;;;2.80;99.90;;;;;;5092404;28;20232;-58
2023/03/28 04:23:25;;;;;;;4.97;2.93;;;2.70;99.90;;;;;;5092781;28;20205;-59
2023/03/28 04:25:54;;;;;;;4.10;2.37;;;2.60;99.90;;;;;;5092544;28;20725;-56
2023/03/28 04:28:24;;;;;;;3.03;2.57;;;2.60;99.90;;;;;;5092205;28;20232;-57
2023/03/28 04:30:53;;;;;;;4.73;2.63;;;2.50;99.90;;;;;;5095591;28;20211;-57
2023/03/28 04:33:23;;;;;;;7.20;2.80;;;2.40;99.90;;;;;;5096044;28;20668;-57
2023/03/28 04:35:55;;;;;;;5.70;2.80;;;2.30;99.90;;;;;;5096073;28;20204;-56
2023/03/28 04:38:24;;;;;;;5.40;3.13;;;2.20;99.90;;;;;;5096152;28;20228;-57
2023/03/28 04:40:52;;;;;;;6.53;3.03;;;2.20;99.90;;;;;;5096488;28;20246;-56
2023/03/28 04:43:19;;;;;;;6.73;3.53;;;2.10;99.90;;;;;;5096331;28;20239;-57
2023/03/28 04:45:46;;;;;;;4.83;3.20;;;2.10;99.90;;;;;;5095737;28;20605;-56
2023/03/28 04:48:13;;;;;;;6.67;3.23;;;2.00;99.90;;;;;;5096710;28;20263;-56
2023/03/28 04:50:40;;;;;;;5.00;2.90;;;1.90;99.90;;;;;;5096535;28;20261;-57
2023/03/28 04:53:08;;;;;;;4.63;2.80;;;1.80;99.90;;;;;;5096850;28;20207;-58
2023/03/28 04:55:34;;;;;;;4.20;2.70;;;1.80;99.90;;;;;;5096310;28;20212;-57
2023/03/28 04:58:01;;;;;;;5.13;2.40;;;1.70;99.90;;;;;;5096938;28;20234;-57
2023/03/28 05:00:28;;;;;;;6.63;2.63;;;1.70;99.90;;;;;;5096955;28;20200;-57
2023/03/28 05:02:55;;;;;;;3.73;2.70;;;1.60;99.90;;;;;;5097138;28;20216;-58
2023/03/28 05:05:22;;;;;;;4.63;2.90;;;1.50;99.90;;;;;;5096882;28;20193;-57
2023/03/28 05:07:49;;;;;;;4.80;2.60;;;1.40;99.90;;;;;;5096803;28;20606;-57
2023/03/28 05:10:17;;;;;;;5.83;3.03;;;1.40;99.90;;;;;;5096595;28;20204;-56
2023/03/28 05:12:44;;;;;;;5.30;3.70;;;1.40;99.90;;;;;;5096289;28;20664;-58
2023/03/28 05:15:11;;;;;;;7.30;3.07;;;1.40;99.90;;;;;;5095807;28;20639;-57
2023/03/28 05:17:39;;;;;;;5.13;3.13;;;1.50;99.90;;;;;;5095963;28;20224;-57
2023/03/28 05:20:09;;;;;;;5.70;3.17;;;1.50;99.90;;;;;;5096301;28;20228;-57
2023/03/28 05:22:36;;;;;;;6.03;3.70;;;1.60;99.90;;;;;;5095698;28;20301;-57
2023/03/28 05:25:05;;;;;;;5.97;3.67;;;1.70;99.90;;;;;;5095454;28;20216;-57
2023/03/28 05:27:33;;;;;;;5.60;3.13;;;1.70;99.90;;;;;;5094538;28;20311;-57
2023/03/28 05:30:00;;;;;;;5.53;3.10;;;1.80;99.90;;;;;;5095196;28;20245;-57
2023/03/28 05:32:27;;;;;;;8.10;3.80;;;1.80;99.90;;;;;;5095306;28;20590;-57
2023/03/28 05:34:54;;;;;;;6.67;3.67;;;1.80;99.90;;;;;;5095406;28;20204;-57
2023/03/28 05:37:21;;;;;;;6.00;3.27;;;1.80;99.90;;;;;;5094845;28;20227;-57
2023/03/28 05:39:48;;;;;;;5.00;3.40;;;1.70;99.90;;;;;;5094209;28;20208;-57
2023/03/28 05:42:14;;;;;;;4.53;2.83;;;1.70;99.90;;;;;;5094868;28;20228;-57
2023/03/28 05:44:42;;;;;;;5.47;3.40;;;1.80;99.90;;;;;;5094835;28;20590;-57
2023/03/28 05:47:09;;;;;;;6.57;3.67;;;1.90;99.90;;;;;;5094209;28;20228;-58
2023/03/28 05:49:36;;;;;;;10.33;3.33;;;1.90;99.90;;;;;;5094524;28;20366;-59
2023/03/28 05:52:03;;;;;;;5.17;3.17;;;2.00;99.90;;;;;;5094059;28;20691;-56
2023/03/28 05:54:30;;;;;;;5.80;3.30;;;1.90;99.90;;;;;;5093682;28;20204;-56
2023/03/28 05:56:57;;;;;;;9.67;3.77;;;2.00;99.90;;;;;;5093458;28;20227;-56
2023/03/28 05:59:23;;;;;;;8.07;3.30;;;2.10;99.90;;;;;;5094168;28;20205;-56
2023/03/28 06:01:52;;;;;;;4.73;2.83;;;2.20;99.90;;;;;;5093846;28;20316;-56
2023/03/28 06:04:20;;;;;;;7.17;3.40;;;2.20;99.90;;;;;;5093650;28;20581;-56
2023/03/28 06:06:47;;;;;;;5.80;3.20;;;2.30;99.90;;;;;;5093804;28;20204;-56
2023/03/28 06:09:14;;;;;;;4.40;3.20;;;2.40;99.90;;;;;;5093764;28;20691;-56
2023/03/28 06:11:41;;;;;;;5.53;3.30;;;2.60;99.90;;;;;;5093776;28;20201;-56
2023/03/28 06:14:08;;;;;;;7.77;2.90;;;3.40;99.90;;;;;;5093748;28;20205;-57
2023/03/28 06:16:35;;;;;;;5.93;3.20;;;4.60;99.90;;;;;;5093032;28;20219;-58
2023/03/28 06:19:03;;;;;;;4.43;2.40;;;6.00;99.90;;;;;;5093401;28;20227;-58
2023/03/28 06:21:31;;;;;;;4.40;2.57;;;7.40;99.90;;;;;;5093294;28;20224;-58
2023/03/28 06:23:57;;;;;;;8.20;3.10;;;8.70;99.90;;;;;;5093686;28;20206;-59
2023/03/28 06:26:24;;;;;;;5.83;2.60;;;9.90;99.90;;;;;;5093246;28;20587;-59
2023/03/28 06:28:51;;;;;;;6.10;2.80;;;11.10;99.90;;;;;;5093261;28;20224;-58
2023/03/28 06:31:18;;;;;;;6.23;3.00;;;12.10;99.90;;;;;;5093124;28;20725;-59
2023/03/28 06:33:45;;;;;;;4.33;2.60;;;13.10;99.90;;;;;;5093127;28;20210;-59
2023/03/28 06:36:13;;;;;;;5.43;2.40;;;14.20;98.30;;;;;;5092734;28;20204;-59
2023/03/28 06:38:40;;;;;;;6.40;2.87;;;15.30;97.30;;;;;;5093271;28;20227;-59
2023/03/28 06:41:07;;;;;;;3.33;2.30;;;16.40;95.40;;;;;;5092754;28;20632;-59
2023/03/28 06:43:33;;;;;;;7.20;2.70;;;17.20;93.20;;;;;;5093074;28;20215;-60
2023/03/28 06:46:00;;;;;;;6.47;2.80;;;17.90;88.80;;;;;;5092908;28;20317;-59
2023/03/28 06:48:30;;;;;;;5.35;2.90;;;18.40;86.80;;;;;;5092971;28;20634;-59
2023/03/28 06:50:57;;;;;;;6.25;2.65;;;19.10;82.80;;;;;;5093277;28;20204;-59
2023/03/28 06:53:25;;;;;;;9.48;4.50;;;19.90;80.50;;;;;;5092442;28;20577;-59
2023/03/28 06:55:54;;;;;;;7.25;3.67;;;20.60;75.80;;;;;;5092688;28;20272;-59
2023/03/28 06:58:22;;;;;;;6.03;2.35;;;21.10;72.70;;;;;;5092888;28;20232;-59
2023/03/28 07:00:51;;;;;;;8.43;2.22;;;21.50;69.80;;;;;;5092730;28;20211;-59
2023/03/28 07:03:18;;;;;;;9.77;3.30;;;21.90;66.60;;;;;;5092678;28;20235;-59
2023/03/28 07:05:45;;;;;;;7.80;3.40;;;22.30;65.50;;;;;;5092513;28;20200;-59
2023/03/28 07:08:13;;;;;;;6.97;2.40;;;22.60;62.00;;;;;;5092320;28;20232;-59
2023/03/28 07:10:41;;;;;;;7.78;2.35;;;22.30;61.10;;;;;;5092754;28;20208;-59
2023/03/28 07:13:09;;;;;;;5.93;3.30;;;22.50;61.50;;;;;;5092689;28;20330;-59
2023/03/28 07:15:35;;;;;;;3.70;2.20;;;23.00;59.50;;;;;;5092416;28;20210;-59
2023/03/28 07:18:04;;;;;;;5.07;2.33;;;23.10;57.50;;;;;;5092527;28;20227;-59
2023/03/28 07:20:31;;;;;;;3.58;2.13;;;23.20;57.60;;;;;;5092648;28;20257;-59
2023/03/28 07:22:57;;;;;;;6.10;2.00;;;23.50;57.30;;;;;;5092476;28;20253;-59
2023/03/28 07:25:24;;;;;;;4.28;2.13;;;23.40;55.80;;;;;;5092326;28;20561;-59
2023/03/28 07:27:53;;;;;;;8.05;2.13;;;23.00;56.20;;;;;;5092525;28;20238;-59
2023/03/28 07:30:20;;;;;;;6.10;2.10;;;22.70;56.50;;;;;;5092243;28;20204;-59
2023/03/28 07:32:47;;;;;;;5.22;2.05;;;22.90;56.60;;;;;;5092465;28;20211;-59
2023/03/28 07:35:14;;;;;;;4.43;1.92;;;23.30;55.70;;;;;;5092441;28;20208;-62
2023/03/28 07:37:41;;;;;;;6.55;2.40;;;23.60;54.70;;;;;;5091992;28;20230;-59
2023/03/28 07:40:09;;;;;;;5.50;1.80;;;23.80;54.30;;;;;;5092143;28;20208;-59
2023/03/28 07:42:36;;;;;;;4.47;1.90;;;23.90;52.20;;;;;;5091955;28;20314;-59
2023/03/28 07:45:05;;;;;;;4.68;2.17;;;22.30;53.80;;;;;;5092085;28;20204;-59
2023/03/28 07:47:31;;;;;;;5.57;1.90;;;21.50;55.80;;;;;;5091781;28;20758;-59
2023/03/28 07:49:58;;;;;;;3.88;1.95;;;21.70;55.70;;;;;;5092366;28;20302;-59
2023/03/28 07:52:25;;;;;;;7.72;5.35;;;21.90;54.70;;;;;;5092004;28;20643;-59
2023/03/28 07:54:52;;;;;;;5.47;2.13;;;22.40;53.60;;;;;;5092031;28;20203;-59
2023/03/28 07:57:19;;;;;;;5.03;1.77;;;21.50;53.30;;;;;;5091751;28;20234;-59
2023/03/28 07:59:46;;;;;;;5.75;1.98;;;20.60;55.10;;;;;;5092121;28;20691;-60
2023/03/28 08:02:14;;;;;;;5.97;3.63;;;20.80;56.00;;;;;;5092026;28;20236;-59
2023/03/28 08:04:41;;;;;;;9.05;4.35;;;20.60;55.60;;;;;;5095538;28;20261;-59
2023/03/28 08:07:09;;;;;;;5.82;2.65;;;19.80;57.00;;;;;;5095977;28;20235;-59
2023/03/28 08:09:36;;;;;;;5.15;1.95;;;18.60;57.90;;;;;;5096280;28;20678;-59
2023/03/28 08:12:03;;;;;;;4.57;2.22;;;17.30;59.70;;;;;;5096159;28;20576;-59
2023/03/28 08:14:30;;;;;;;5.07;2.15;;;16.00;62.80;;;;;;5096382;28;20210;-59
2023/03/28 08:16:57;;;;;;;4.65;2.20;;;14.80;65.10;;;;;;5095845;28;20232;-59
2023/03/28 08:19:25;;;;;;;5.70;2.50;;;13.70;68.50;;;;;;5096032;28;20294;-57
2023/03/28 08:21:52;;;;;;;7.97;2.43;;;12.80;70.50;;;;;;5095680;28;20207;-57
2023/03/28 08:24:18;;;;;;;4.77;2.00;;;11.60;74.20;;;;;;5095682;28;20667;-57
2023/03/28 08:26:45;;;;;;;5.30;3.00;;;10.50;78.30;;;;;;5095710;28;20204;-57
2023/03/28 08:29:12;;;;;;;10.20;2.90;;;10.10;80.80;;;;;;5096040;28;20209;-57
2023/03/28 08:31:39;;;;;;;5.33;2.13;;;9.90;82.00;;;;;;5095974;28;20211;-59
2023/03/28 08:34:06;;;;;;;6.20;1.90;;;9.70;82.20;;;;;;5095807;28;20650;-57
2023/03/28 08:36:34;;;;;;;8.07;2.40;;;9.70;82.60;;;;;;5095480;28;20208;-58
2023/03/28 08:39:03;;;;;;;4.93;2.43;;;9.50;82.60;;;;;;5095569;28;20232;-58
2023/03/28 08:41:51;;;;;;;6.80;2.07;;;9.40;83.70;;;;;;5095814;28;20212;-58
2023/03/28 08:44:39;;;;;;;8.73;5.30;;;9.30;84.50;;;;;;5095667;28;20686;-58
2023/03/28 08:47:11;;;;;;;7.33;2.90;;;9.30;86.50;;;;;;5095292;28;20224;-57
2023/03/28 08:49:44;;;;;;;6.10;2.33;;;9.30;87.60;;;;;;5095471;28;20637;-58
2023/03/28 08:52:15;;;;;;;6.50;2.40;;;9.30;88.30;;;;;;5095873;28;20284;-58
2023/03/28 08:54:47;;;;;;;7.60;2.80;;;9.30;88.90;;;;;;5095599;28;20232;-58
2023/03/28 08:57:18;;;;;;;12.73;3.83;;;9.50;87.80;;;;;;5095341;28;20228;-58
2023/03/28 08:59:52;;;;;;;5.33;2.83;;;9.60;88.30;;;;;;5096036;28;20256;-58
2023/03/28 09:02:21;;;;;;;6.75;2.45;;;9.80;88.80;;;;;;5077028;28;20445;-58
2023/03/28 09:04:49;;;;;;;7.90;2.30;;;9.90;87.20;;;;;;5075775;28;20215;-61
2023/03/28 09:07:27;;;;;;;6.10;2.43;;;9.80;88.90;;;;;;5076524;28;20225;-61
2023/03/28 09:10:06;;;;;;;4.50;2.30;;;9.90;89.00;;;;;;5076054;28;20692;-63
2023/03/28 09:12:46;;;;;;;4.80;2.07;;;10.10;87.90;;;;;;5074956;28;20564;-60
2023/03/28 09:15:27;;;;;;;5.73;2.10;;;10.10;86.30;;;;;;5074590;28;20201;-60
2023/03/28 09:18:22;;;;;;;6.60;1.80;;;10.00;86.40;;;;;;5075800;28;20541;-63
2023/03/28 09:20:53;;;;;;;6.20;2.07;;;10.30;82.00;;;;;;5075643;28;20270;-62
2023/03/28 09:23:52;;;;;;;4.43;1.60;;;10.70;80.60;;;;;;5074674;28;20683;-60
2023/03/28 09:26:23;;;;;;;3.43;2.00;;;11.30;78.30;;;;;;5074137;28;20205;-61
2023/03/28 09:28:56;;;;;;;3.93;1.90;;;11.80;77.40;;;;;;5074936;28;20225;-63
2023/03/28 09:31:29;;;;;;;5.03;1.80;;;12.20;76.60;;;;;;5075155;28;20208;-59
2023/03/28 09:33:59;;;;;;;5.37;2.30;;;12.60;75.90;;;;;;5074184;28;20197;-61
2023/03/28 09:36:30;;;;;;;5.70;2.20;;;12.70;76.50;;;;;;5074493;28;20228;-61
2023/03/28 09:39:00;;;;;;;5.93;1.90;;;12.70;76.30;;;;;;5075372;28;20293;-59
2023/03/28 09:41:34;;;;;;;4.03;1.47;;;12.70;77.00;;;;;;5075189;28;20205;-62
2023/03/28 09:44:02;;;;;;;4.17;1.40;;;12.40;74.50;;;;;;5075603;28;20285;-63
2023/03/28 09:46:32;;;;;;;6.33;1.57;;;12.20;73.40;;;;;;5075119;28;20216;-61
2023/03/28 09:48:59;;;;;;;7.30;1.50;;;11.80;74.50;;;;;;5075453;28;20205;-62
2023/03/28 09:51:26;;;;;;;4.93;1.30;;;11.60;74.20;;;;;;5075824;28;20232;-62
2023/03/28 09:53:53;;;;;;;3.33;1.70;;;11.50;73.50;;;;;;5074862;28;20197;-62
2023/03/28 09:56:26;;;;;;;4.40;1.80;;;11.30;74.50;;;;;;5074846;28;20209;-62
2023/03/28 09:58:54;;;;;;;7.20;1.47;;;11.30;75.00;;;;;;5075092;28;20235;-60
2023/03/28 10:01:34;;;;;;;5.60;1.80;;;11.50;74.40;;;;;;5074060;28;20212;-58
2023/03/28 10:04:01;;;;;;;3.50;1.40;;;11.60;71.80;;;;;;5073912;28;20229;-58
2023/03/28 10:06:30;;;;;;;6.63;1.67;;;11.80;70.90;;;;;;5073975;28;20296;-59
2023/03/28 10:09:17;;;;;;;7.77;1.80;;;11.90;71.30;;;;;;5073513;28;20209;-58
2023/03/28 10:11:48;;;;;;;4.13;1.50;;;12.10;70.90;;;;;;5073849;28;20201;-59
2023/03/28 10:14:33;;;;;;;5.20;1.97;;;12.10;64.60;;;;;;5073818;28;20200;-58
2023/03/28 10:17:02;;;;;;;6.33;1.27;;;12.00;65.10;;;;;;5073177;28;20228;-58
2023/03/28 10:19:33;;;;;;;4.17;2.40;;;12.00;67.60;;;;;;5073503;28;20220;-58
2023/03/28 10:22:04;;;;;;;5.17;1.43;;;11.90;68.70;;;;;;5073781;28;20582;-58
2023/03/28 10:24:31;;;;;;;4.00;1.70;;;11.70;68.60;;;;;;5073441;28;20225;-58
2023/03/28 10:27:07;;;;;;;3.63;1.37;;;11.40;68.70;;;;;;5072911;28;20730;-58
2023/03/28 10:29:35;;;;;;;4.07;1.40;;;11.20;70.30;;;;;;5073191;28;20590;-58
2023/03/28 10:32:04;;;;;;;4.27;1.70;;;11.20;71.00;;;;;;5072971;28;20211;-58
2023/03/28 10:34:33;;;;;;;4.10;1.43;;;11.30;71.00;;;;;;5072779;28;20668;-58
2023/03/28 10:37:00;;;;;;;8.93;1.67;;;11.20;70.00;;;;;;5073048;28;20282;-58
2023/03/28 10:39:29;;;;;;;3.80;1.73;;;11.00;70.70;;;;;;5073071;28;20205;-58
2023/03/28 10:41:57;;;;;;;3.43;1.27;;;11.00;71.10;;;;;;5072834;28;20204;-58
2023/03/28 10:44:30;;;;;;;3.20;1.53;;;11.20;70.80;;;;;;5072937;28;20236;-58
2023/03/28 10:47:00;;;;;;;5.30;1.50;;;11.50;69.60;;;;;;5072855;28;20232;-58
2023/03/28 10:49:29;;;;;;;5.10;1.50;;;11.60;69.70;;;;;;5072899;28;20676;-58
2023/03/28 10:51:56;;;;;;;6.40;1.87;;;11.70;68.60;;;;;;5072832;28;20211;-58
2023/03/28 10:54:37;;;;;;;2.53;1.20;;;11.70;67.40;;;;;;5072911;28;20361;-58
2023/03/28 10:57:12;;;;;;;3.37;1.30;;;11.80;66.80;;;;;;5072327;28;20232;-58
2023/03/28 10:59:51;;;;;;;4.17;1.70;;;12.00;67.00;;;;;;5072818;28;20211;-58
2023/03/28 11:02:44;;;;;;;6.50;1.80;;;12.10;67.10;;;;;;5072723;28;20208;-58
2023/03/28 11:05:34;;;;;;;3.13;1.40;;;12.10;67.60;;;;;;5072874;28;20248;-58
2023/03/28 11:08:09;;;;;;;7.63;1.70;;;11.70;69.00;;;;;;5072458;28;20328;-59
2023/03/28 11:10:50;;;;;;;5.17;1.37;;;11.30;69.10;;;;;;5073050;28;20197;-59
2023/03/28 11:13:28;;;;;;;3.90;1.63;;;11.10;69.00;;;;;;5072826;28;20652;-59
2023/03/28 11:16:03;;;;;;;3.27;1.43;;;11.20;67.90;;;;;;5072830;28;20232;-60
2023/03/28 11:18:44;;;;;;;3.87;1.70;;;11.40;71.00;;;;;;5073028;28;20230;-60
2023/03/28 11:21:22;;;;;;;3.53;1.23;;;11.70;71.30;;;;;;5073200;28;20215;-60
2023/03/28 11:23:59;;;;;;;4.20;1.77;;;12.30;69.10;;;;;;5073006;28;20295;-60
2023/03/28 11:26:38;;;;;;;4.47;1.50;;;12.40;67.50;;;;;;5073411;28;20212;-59
2023/03/28 11:29:19;;;;;;;6.00;1.53;;;12.60;66.90;;;;;;5073104;28;20299;-60
2023/03/28 11:31:57;;;;;;;3.73;1.70;;;12.80;66.80;;;;;;5073224;28;20355;-60
2023/03/28 11:34:30;;;;;;;7.10;4.10;;;12.60;66.70;;;;;;5073093;28;20613;-60
2023/03/28 11:37:04;;;;;;;3.97;1.60;;;12.60;65.80;;;;;;5072420;28;20294;-60
2023/03/28 11:39:37;;;;;;;2.60;1.20;;;12.70;67.70;;;;;;5072110;28;20212;-60
2023/03/28 11:42:10;;;;;;;6.30;1.80;;;13.10;66.50;;;;;;5072631;28;20267;-60
2023/03/28 11:44:43;;;;;;;2.20;1.50;;;13.20;64.60;;;;;;5072330;28;20232;-58
2023/03/28 11:47:15;;;;;;;4.10;1.63;;;13.10;63.90;;;;;;5072027;28;20715;-58
2023/03/28 11:49:48;;;;;;;4.73;1.67;;;12.80;64.00;;;;;;5072414;28;20231;-58
2023/03/28 11:52:20;;;;;;;2.70;1.40;;;12.50;66.10;;;;;;5072472;28;20216;-58
2023/03/28 11:54:50;;;;;;;3.73;1.47;;;12.30;66.10;;;;;;5072137;28;20680;-58
2023/03/28 11:57:27;;;;;;;5.13;1.60;;;12.20;65.20;;;;;;5072251;28;20315;-59
2023/03/28 12:00:04;;;;;;;4.43;1.40;;;12.10;65.70;;;;;;5072479;28;20672;-58
2023/03/28 12:02:41;;;;;;;4.90;1.30;;;12.00;66.10;;;;;;5072950;28;20243;-58
2023/03/28 12:05:17;;;;;;;2.90;1.60;;;12.00;66.40;;;;;;5073289;28;20204;-58
2023/03/28 12:07:51;;;;;;;6.20;1.60;;;11.90;65.80;;;;;;5072597;28;20248;-58
2023/03/28 12:10:23;;;;;;;4.53;2.00;;;11.80;66.90;;;;;;5073083;28;20242;-58
2023/03/28 12:13:00;;;;;;;5.10;2.03;;;11.90;68.40;;;;;;5072894;28;20204;-58
2023/03/28 12:15:37;;;;;;;4.20;1.40;;;12.20;67.90;;;;;;5072681;28;20669;-58
2023/03/28 12:18:12;;;;;;;3.20;1.80;;;12.30;65.90;;;;;;5073133;28;20283;-59
2023/03/28 12:20:48;;;;;;;3.20;1.50;;;12.30;66.10;;;;;;5073148;28;20212;-59
2023/03/28 12:23:22;;;;;;;5.47;2.53;;;12.30;66.20;;;;;;5073398;28;20311;-59
2023/03/28 12:25:57;;;;;;;4.93;1.60;;;12.20;65.30;;;;;;5073727;28;20203;-61
2023/03/28 12:28:28;;;;;;;4.70;1.70;;;12.50;64.20;;;;;;5072972;28;20422;-59
2023/03/28 12:31:04;;;;;;;3.30;1.40;;;12.60;63.00;;;;;;5072874;28;20209;-59
2023/03/28 12:33:44;;;;;;;2.80;1.83;;;12.30;64.70;;;;;;5073034;28;20196;-59
2023/03/28 12:36:19;;;;;;;3.73;1.50;;;12.20;65.00;;;;;;5072430;28;20303;-60
2023/03/28 12:38:53;;;;;;;2.97;1.70;;;12.10;64.50;;;;;;5072850;28;20227;-59
2023/03/28 12:41:23;;;;;;;5.63;1.70;;;12.20;65.60;;;;;;5072663;28;20331;-59
2023/03/28 12:43:54;;;;;;;2.73;1.20;;;12.00;64.90;;;;;;5072516;28;20238;-59
2023/03/28 12:46:25;;;;;;;3.50;1.37;;;11.80;64.80;;;;;;5072371;28;20209;-59
2023/03/28 12:48:58;;;;;;;3.40;2.27;;;11.80;65.70;;;;;;5073109;28;20315;-59
2023/03/28 12:51:31;;;;;;;5.20;1.90;;;12.10;64.30;;;;;;5074696;28;20208;-59
2023/03/28 12:54:07;;;;;;;6.60;3.20;;;12.30;63.40;;;;;;5075688;28;20209;-60
2023/03/28 12:56:34;;;;;;;6.37;2.43;;;12.50;63.20;;;;;;5075208;28;20212;-59
2023/03/28 12:59:15;;;;;;;5.67;1.77;;;12.70;63.00;;;;;;5075524;28;20239;-59
2023/03/28 13:01:47;;;;;;;3.73;1.60;;;13.10;62.40;;;;;;5075625;28;20221;-60
2023/03/28 13:04:27;;;;;;;6.20;1.60;;;13.40;60.80;;;;;;5075300;28;20240;-60
2023/03/28 13:07:04;;;;;;;5.20;1.90;;;13.60;60.70;;;;;;5074852;28;20224;-59
2023/03/28 13:09:48;;;;;;;5.97;2.00;;;13.80;61.70;;;;;;5074903;28;20213;-58
2023/03/28 13:12:27;;;;;;;4.57;1.73;;;13.80;60.10;;;;;;5075252;28;20625;-60
2023/03/28 13:15:00;;;;;;;4.27;1.53;;;13.90;60.10;;;;;;5074835;28;20252;-59